sensor_id;sensor_type;location;lat;lon;timestamp;pressure;altitude;pressure_sealevel;temperature;humidity
21504;BME280;10913;51.992;9.228;2023-11-22T00:00:20;101331.09;;;4.24;98.06
21504;BME280;10913;51.992;9.228;2023-11-22T00:02:45;101330.94;;;4.20;99.74
21504;BME280;10913;51.992;9.228;2023-11-22T00:05:12;101343.91;;;4.17;99.65
21504;BME280;10913;51.992;9.228;2023-11-22T00:07:37;101341.94;;;4.11;99.29
21504;BME280;10913;51.992;9.228;2023-11-22T00:10:02;101352.25;;;4.06;99.19
21504;BME280;10913;51.992;9.228;2023-11-22T00:12:29;101348.69;;;4.04;99.16
21504;BME280;10913;51.992;9.228;2023-11-22T00:15:01;101358.13;;;4.01;99.59
21504;BME280;10913;51.992;9.228;2023-11-22T00:17:26;101354.59;;;3.99;99.99
21504;BME280;10913;51.992;9.228;2023-11-22T00:19:51;101364.16;;;3.98;100.00
21504;BME280;10913;51.992;9.228;2023-11-22T00:22:16;101373.72;;;3.98;100.00
21504;BME280;10913;51.992;9.228;2023-11-22T00:24:42;101371.94;;;3.97;99.88
21504;BME280;10913;51.992;9.228;2023-11-22T00:27:07;101377.06;;;3.94;100.00
21504;BME280;10913;51.992;9.228;2023-11-22T00:29:33;101374.38;;;3.92;100.00
21504;BME280;10913;51.992;9.228;2023-11-22T00:31:58;101383.06;;;3.91;100.00
21504;BME280;10913;51.992;9.228;2023-11-22T00:34:24;101400.41;;;3.89;100.00
21504;BME280;10913;51.992;9.228;2023-11-22T00:36:50;101408.13;;;3.86;100.00
21504;BME280;10913;51.992;9.228;2023-11-22T00:39:16;101404.50;;;3.83;100.00
21504;BME280;10913;51.992;9.228;2023-11-22T00:41:41;101411.34;;;3.79;100.00
21504;BME280;10913;51.992;9.228;2023-11-22T00:44:06;101420.66;;;3.72;100.00
21504;BME280;10913;51.992;9.228;2023-11-22T00:46:32;101416.97;;;3.67;100.00
21504;BME280;10913;51.992;9.228;2023-11-22T00:48:57;101413.34;;;3.64;100.00
21504;BME280;10913;51.992;9.228;2023-11-22T00:51:23;101402.84;;;3.62;100.00
21504;BME280;10913;51.992;9.228;2023-11-22T00:53:48;101401.88;;;3.60;100.00
21504;BME280;10913;51.992;9.228;2023-11-22T00:56:14;101401.88;;;3.60;100.00
21504;BME280;10913;51.992;9.228;2023-11-22T00:58:40;101400.22;;;3.62;100.00
21504;BME280;10913;51.992;9.228;2023-11-22T01:01:05;101404.63;;;3.63;100.00
21504;BME280;10913;51.992;9.228;2023-11-22T01:03:30;101404.63;;;3.63;100.00
21504;BME280;10913;51.992;9.228;2023-11-22T01:05:55;101410.69;;;3.62;100.00
21504;BME280;10913;51.992;9.228;2023-11-22T01:08:21;101413.22;;;3.61;100.00
21504;BME280;10913;51.992;9.228;2023-11-22T01:10:47;101421.88;;;3.58;100.00
21504;BME280;10913;51.992;9.228;2023-11-22T01:13:12;101433.91;;;3.55;100.00
21504;BME280;10913;51.992;9.228;2023-11-22T01:15:39;101429.38;;;3.51;100.00
21504;BME280;10913;51.992;9.228;2023-11-22T01:18:04;101434.28;;;3.43;100.00
21504;BME280;10913;51.992;9.228;2023-11-22T01:20:30;101434.88;;;3.36;100.00
21504;BME280;10913;51.992;9.228;2023-11-22T01:22:55;101437.25;;;3.30;100.00
21504;BME280;10913;51.992;9.228;2023-11-22T01:25:21;101432.53;;;3.21;100.00
21504;BME280;10913;51.992;9.228;2023-11-22T01:27:46;101439.94;;;3.10;100.00
21504;BME280;10913;51.992;9.228;2023-11-22T01:30:11;101447.44;;;3.03;100.00
21504;BME280;10913;51.992;9.228;2023-11-22T01:32:37;101451.53;;;2.96;100.00
21504;BME280;10913;51.992;9.228;2023-11-22T01:35:02;101453.09;;;2.93;100.00
21504;BME280;10913;51.992;9.228;2023-11-22T01:37:28;101447.75;;;2.90;100.00
21504;BME280;10913;51.992;9.228;2023-11-22T01:39:53;101451.13;;;2.87;100.00
21504;BME280;10913;51.992;9.228;2023-11-22T01:42:19;101456.19;;;2.84;100.00
21504;BME280;10913;51.992;9.228;2023-11-22T01:44:45;101453.44;;;2.81;100.00
21504;BME280;10913;51.992;9.228;2023-11-22T01:47:10;101447.16;;;2.76;100.00
21504;BME280;10913;51.992;9.228;2023-11-22T01:49:35;101448.75;;;2.72;100.00
21504;BME280;10913;51.992;9.228;2023-11-22T01:52:01;101453.75;;;2.68;100.00
21504;BME280;10913;51.992;9.228;2023-11-22T01:54:28;101450.81;;;2.60;100.00
21504;BME280;10913;51.992;9.228;2023-11-22T01:56:54;101444.44;;;2.54;100.00
21504;BME280;10913;51.992;9.228;2023-11-22T01:59:20;101444.09;;;2.46;100.00
21504;BME280;10913;51.992;9.228;2023-11-22T02:01:45;101434.50;;;2.45;100.00
21504;BME280;10913;51.992;9.228;2023-11-22T02:04:14;101431.81;;;2.43;100.00
21504;BME280;10913;51.992;9.228;2023-11-22T02:06:39;101430.84;;;2.41;100.00
21504;BME280;10913;51.992;9.228;2023-11-22T02:09:05;101436.94;;;2.42;100.00
21504;BME280;10913;51.992;9.228;2023-11-22T02:11:30;101437.84;;;2.42;100.00
21504;BME280;10913;51.992;9.228;2023-11-22T02:13:55;101442.09;;;2.40;100.00
21504;BME280;10913;51.992;9.228;2023-11-22T02:16:20;101442.88;;;2.38;100.00
21504;BME280;10913;51.992;9.228;2023-11-22T02:18:47;101449.75;;;2.36;100.00
21504;BME280;10913;51.992;9.228;2023-11-22T02:21:12;101456.69;;;2.35;100.00
21504;BME280;10913;51.992;9.228;2023-11-22T02:23:37;101461.88;;;2.35;100.00
21504;BME280;10913;51.992;9.228;2023-11-22T02:26:03;101454.81;;;2.33;100.00
21504;BME280;10913;51.992;9.228;2023-11-22T02:28:28;101461.69;;;2.31;100.00
21504;BME280;10913;51.992;9.228;2023-11-22T02:30:53;101465.84;;;2.27;100.00
21504;BME280;10913;51.992;9.228;2023-11-22T02:33:19;101470.09;;;2.25;100.00
21504;BME280;10913;51.992;9.228;2023-11-22T02:35:45;101470.78;;;2.21;100.00
21504;BME280;10913;51.992;9.228;2023-11-22T02:38:10;101468.06;;;2.18;100.00
21504;BME280;10913;51.992;9.228;2023-11-22T02:40:35;101468.72;;;2.14;100.00
21504;BME280;10913;51.992;9.228;2023-11-22T02:43:00;101471.03;;;2.08;100.00
21504;BME280;10913;51.992;9.228;2023-11-22T02:45:30;101461.28;;;2.04;100.00
21504;BME280;10913;51.992;9.228;2023-11-22T02:47:55;101462.94;;;2.02;100.00
21504;BME280;10913;51.992;9.228;2023-11-22T02:50:21;101468.97;;;2.01;100.00
21504;BME280;10913;51.992;9.228;2023-11-22T02:52:46;101474.97;;;1.98;100.00
21504;BME280;10913;51.992;9.228;2023-11-22T02:55:12;101474.13;;;1.99;100.00
21504;BME280;10913;51.992;9.228;2023-11-22T02:57:37;101482.81;;;2.00;100.00
21504;BME280;10913;51.992;9.228;2023-11-22T03:00:03;101485.44;;;2.00;100.00
21504;BME280;10913;51.992;9.228;2023-11-22T03:02:29;101499.31;;;1.99;100.00
21504;BME280;10913;51.992;9.228;2023-11-22T03:04:54;101502.66;;;1.96;100.00
21504;BME280;10913;51.992;9.228;2023-11-22T03:07:20;101505.19;;;1.95;100.00
21504;BME280;10913;51.992;9.228;2023-11-22T03:09:45;101516.44;;;1.94;100.00
21504;BME280;10913;51.992;9.228;2023-11-22T03:12:11;101520.75;;;1.93;100.00
21504;BME280;10913;51.992;9.228;2023-11-22T03:14:37;101511.06;;;1.91;100.00
21504;BME280;10913;51.992;9.228;2023-11-22T03:17:03;101519.47;;;1.85;100.00
21504;BME280;10913;51.992;9.228;2023-11-22T03:19:29;101520.75;;;1.76;100.00
21504;BME280;10913;51.992;9.228;2023-11-22T03:21:54;101513.31;;;1.65;100.00
21504;BME280;10913;51.992;9.228;2023-11-22T03:24:21;101522.59;;;1.60;100.00
21504;BME280;10913;51.992;9.228;2023-11-22T03:26:46;101525.22;;;1.60;100.00
21504;BME280;10913;51.992;9.228;2023-11-22T03:29:12;101527.81;;;1.60;100.00
21504;BME280;10913;51.992;9.228;2023-11-22T03:31:41;101523.44;;;1.59;100.00
21504;BME280;10913;51.992;9.228;2023-11-22T03:34:07;101535.63;;;1.60;100.00
21504;BME280;10913;51.992;9.228;2023-11-22T03:36:32;101538.22;;;1.60;100.00
21504;BME280;10913;51.992;9.228;2023-11-22T03:38:59;101543.50;;;1.62;100.00
21504;BME280;10913;51.992;9.228;2023-11-22T03:41:24;101548.97;;;1.66;100.00
21504;BME280;10913;51.992;9.228;2023-11-22T03:43:49;101542.13;;;1.68;100.00
21504;BME280;10913;51.992;9.228;2023-11-22T03:46:15;101542.13;;;1.68;100.00
21504;BME280;10913;51.992;9.228;2023-11-22T03:48:40;101549.13;;;1.69;100.00
21504;BME280;10913;51.992;9.228;2023-11-22T03:51:05;101551.63;;;1.68;100.00
21504;BME280;10913;51.992;9.228;2023-11-22T03:53:30;101561.97;;;1.66;100.00
21504;BME280;10913;51.992;9.228;2023-11-22T03:55:57;101560.03;;;1.62;100.00
21504;BME280;10913;51.992;9.228;2023-11-22T03:58:22;101565.13;;;1.59;100.00
21504;BME280;10913;51.992;9.228;2023-11-22T04:00:47;101564.06;;;1.56;100.00
21504;BME280;10913;51.992;9.228;2023-11-22T04:03:13;101568.06;;;1.49;100.00
21504;BME280;10913;51.992;9.228;2023-11-22T04:05:38;101573.84;;;1.44;100.00
21504;BME280;10913;51.992;9.228;2023-11-22T04:08:03;101578.97;;;1.42;100.00
21504;BME280;10913;51.992;9.228;2023-11-22T04:10:29;101576.38;;;1.42;100.00
21504;BME280;10913;51.992;9.228;2023-11-22T04:12:54;101566.78;;;1.41;100.00
21504;BME280;10913;51.992;9.228;2023-11-22T04:15:19;101568.34;;;1.37;100.00
21504;BME280;10913;51.992;9.228;2023-11-22T04:17:44;101568.13;;;1.33;100.00
21504;BME280;10913;51.992;9.228;2023-11-22T04:20:10;101566.81;;;1.25;100.00
21504;BME280;10913;51.992;9.228;2023-11-22T04:22:42;101564.59;;;1.15;100.00
21504;BME280;10913;51.992;9.228;2023-11-22T04:25:10;101580.75;;;1.09;100.00
21504;BME280;10913;51.992;9.228;2023-11-22T04:27:38;101585.88;;;1.08;100.00
21504;BME280;10913;51.992;9.228;2023-11-22T04:30:04;101595.47;;;1.09;100.00
21504;BME280;10913;51.992;9.228;2023-11-22T04:32:29;101599.06;;;1.11;100.00
21504;BME280;10913;51.992;9.228;2023-11-22T04:34:54;101607.84;;;1.13;100.00
21504;BME280;10913;51.992;9.228;2023-11-22T04:37:20;101606.06;;;1.12;100.00
21504;BME280;10913;51.992;9.228;2023-11-22T04:39:50;101605.25;;;1.13;100.00
21504;BME280;10913;51.992;9.228;2023-11-22T04:42:17;101602.31;;;1.07;100.00
21504;BME280;10913;51.992;9.228;2023-11-22T04:44:42;101604.53;;;0.99;100.00
21504;BME280;10913;51.992;9.228;2023-11-22T04:47:07;101605.09;;;0.93;100.00
21504;BME280;10913;51.992;9.228;2023-11-22T04:49:33;101604.75;;;0.87;100.00
21504;BME280;10913;51.992;9.228;2023-11-22T04:51:58;101601.78;;;0.80;100.00
21504;BME280;10913;51.992;9.228;2023-11-22T04:54:23;101605.75;;;0.73;100.00
21504;BME280;10913;51.992;9.228;2023-11-22T04:56:49;101604.41;;;0.65;100.00
21504;BME280;10913;51.992;9.228;2023-11-22T04:59:15;101611.16;;;0.61;100.00
21504;BME280;10913;51.992;9.228;2023-11-22T05:01:40;101604.13;;;0.59;100.00
21504;BME280;10913;51.992;9.228;2023-11-22T05:04:06;101602.16;;;0.55;100.00
21504;BME280;10913;51.992;9.228;2023-11-22T05:06:31;101611.41;;;0.50;100.00
21504;BME280;10913;51.992;9.228;2023-11-22T05:08:56;101595.44;;;0.44;100.00
21504;BME280;10913;51.992;9.228;2023-11-22T05:11:22;101586.53;;;0.39;100.00
21504;BME280;10913;51.992;9.228;2023-11-22T05:13:47;101589.84;;;0.36;100.00
21504;BME280;10913;51.992;9.228;2023-11-22T05:16:12;101593.19;;;0.33;100.00
21504;BME280;10913;51.992;9.228;2023-11-22T05:18:38;101593.91;;;0.31;100.00
21504;BME280;10913;51.992;9.228;2023-11-22T05:21:03;101607.78;;;0.31;100.00
21504;BME280;10913;51.992;9.228;2023-11-22T05:23:29;101598.56;;;0.37;100.00
21504;BME280;10913;51.992;9.228;2023-11-22T05:25:54;101604.88;;;0.42;100.00
21504;BME280;10913;51.992;9.228;2023-11-22T05:28:19;101611.22;;;0.47;100.00
21504;BME280;10913;51.992;9.228;2023-11-22T05:30:44;101620.00;;;0.49;100.00
21504;BME280;10913;51.992;9.228;2023-11-22T05:33:10;101618.22;;;0.48;100.00
21504;BME280;10913;51.992;9.228;2023-11-22T05:35:35;101635.59;;;0.49;100.00
21504;BME280;10913;51.992;9.228;2023-11-22T05:38:00;101632.19;;;0.50;100.00
21504;BME280;10913;51.992;9.228;2023-11-22T05:40:27;101633.97;;;0.51;100.00
21504;BME280;10913;51.992;9.228;2023-11-22T05:42:52;101640.00;;;0.50;100.00
21504;BME280;10913;51.992;9.228;2023-11-22T05:45:17;101644.38;;;0.51;100.00
21504;BME280;10913;51.992;9.228;2023-11-22T05:47:42;101649.59;;;0.51;100.00
21504;BME280;10913;51.992;9.228;2023-11-22T05:50:08;101652.19;;;0.51;100.00
21504;BME280;10913;51.992;9.228;2023-11-22T05:52:33;101646.19;;;0.52;100.00
21504;BME280;10913;51.992;9.228;2023-11-22T05:54:58;101653.97;;;0.52;100.00
21504;BME280;10913;51.992;9.228;2023-11-22T05:57:24;101647.06;;;0.52;100.00
21504;BME280;10913;51.992;9.228;2023-11-22T05:59:49;101653.16;;;0.53;100.00
21504;BME280;10913;51.992;9.228;2023-11-22T06:02:14;101662.75;;;0.54;100.00
21504;BME280;10913;51.992;9.228;2023-11-22T06:04:39;101655.69;;;0.51;100.00
21504;BME280;10913;51.992;9.228;2023-11-22T06:07:05;101650.31;;;0.48;100.00
21504;BME280;10913;51.992;9.228;2023-11-22T06:09:30;101653.53;;;0.44;100.00
21504;BME280;10913;51.992;9.228;2023-11-22T06:11:55;101653.44;;;0.43;100.00
21504;BME280;10913;51.992;9.228;2023-11-22T06:14:20;101664.66;;;0.42;100.00
21504;BME280;10913;51.992;9.228;2023-11-22T06:16:46;101662.06;;;0.42;100.00
21504;BME280;10913;51.992;9.228;2023-11-22T06:19:11;101663.03;;;0.44;100.00
21504;BME280;10913;51.992;9.228;2023-11-22T06:21:36;101663.03;;;0.44;100.00
21504;BME280;10913;51.992;9.228;2023-11-22T06:24:03;101670.84;;;0.44;100.00
21504;BME280;10913;51.992;9.228;2023-11-22T06:26:31;101671.56;;;0.41;100.00
21504;BME280;10913;51.992;9.228;2023-11-22T06:28:58;101678.31;;;0.38;100.00
21504;BME280;10913;51.992;9.228;2023-11-22T06:31:23;101675.44;;;0.33;100.00
21504;BME280;10913;51.992;9.228;2023-11-22T06:33:48;101681.38;;;0.30;100.00
21504;BME280;10913;51.992;9.228;2023-11-22T06:36:13;101678.69;;;0.29;100.00
21504;BME280;10913;51.992;9.228;2023-11-22T06:38:39;101669.97;;;0.28;100.00
21504;BME280;10913;51.992;9.228;2023-11-22T06:41:05;101669.19;;;0.29;100.00
21504;BME280;10913;51.992;9.228;2023-11-22T06:43:31;101665.78;;;0.30;100.00
21504;BME280;10913;51.992;9.228;2023-11-22T06:45:56;101662.19;;;0.28;100.00
21504;BME280;10913;51.992;9.228;2023-11-22T06:48:21;101673.47;;;0.29;100.00
21504;BME280;10913;51.992;9.228;2023-11-22T06:50:47;101670.78;;;0.27;100.00
21504;BME280;10913;51.992;9.228;2023-11-22T06:53:12;101681.19;;;0.27;100.00
21504;BME280;10913;51.992;9.228;2023-11-22T06:55:38;101676.88;;;0.28;100.00
21504;BME280;10913;51.992;9.228;2023-11-22T06:58:03;101675.34;;;0.31;100.00
21504;BME280;10913;51.992;9.228;2023-11-22T07:00:30;101675.44;;;0.33;100.00
21504;BME280;10913;51.992;9.228;2023-11-22T07:02:55;101679.94;;;0.36;100.00
21504;BME280;10913;51.992;9.228;2023-11-22T07:05:21;101677.34;;;0.36;100.00
21504;BME280;10913;51.992;9.228;2023-11-22T07:07:46;101673.13;;;0.38;100.00
21504;BME280;10913;51.992;9.228;2023-11-22T07:10:13;101675.94;;;0.42;100.00
21504;BME280;10913;51.992;9.228;2023-11-22T07:12:39;101678.00;;;0.48;100.00
21504;BME280;10913;51.992;9.228;2023-11-22T07:15:05;101683.56;;;0.54;100.00
21504;BME280;10913;51.992;9.228;2023-11-22T07:17:34;101687.38;;;0.60;100.00
21504;BME280;10913;51.992;9.228;2023-11-22T07:19:59;101685.03;;;0.65;100.00
21504;BME280;10913;51.992;9.228;2023-11-22T07:22:26;101673.34;;;0.73;100.00
21504;BME280;10913;51.992;9.228;2023-11-22T07:24:51;101675.47;;;0.80;100.00
21504;BME280;10913;51.992;9.228;2023-11-22T07:27:17;101668.09;;;0.88;100.00
21504;BME280;10913;51.992;9.228;2023-11-22T07:29:44;101669.50;;;0.97;100.00
21504;BME280;10913;51.992;9.228;2023-11-22T07:32:09;101671.94;;;1.11;100.00
21504;BME280;10913;51.992;9.228;2023-11-22T07:34:35;101679.16;;;1.32;100.00
21504;BME280;10913;51.992;9.228;2023-11-22T07:37:01;101675.97;;;1.54;100.00
21504;BME280;10913;51.992;9.228;2023-11-22T07:39:26;101657.56;;;1.85;100.00
21504;BME280;10913;51.992;9.228;2023-11-22T07:41:54;101651.72;;;2.25;100.00
21504;BME280;10913;51.992;9.228;2023-11-22T07:44:23;101651.03;;;2.47;100.00
21504;BME280;10913;51.992;9.228;2023-11-22T07:46:49;101662.66;;;2.53;100.00
21504;BME280;10913;51.992;9.228;2023-11-22T07:49:14;101657.50;;;2.55;100.00
21504;BME280;10913;51.992;9.228;2023-11-22T07:51:40;101656.84;;;2.59;100.00
21504;BME280;10913;51.992;9.228;2023-11-22T07:54:06;101651.88;;;2.65;100.00
21504;BME280;10913;51.992;9.228;2023-11-22T07:56:32;101660.00;;;2.71;100.00
21504;BME280;10913;51.992;9.228;2023-11-22T07:58:58;101662.03;;;2.76;100.00
21504;BME280;10913;51.992;9.228;2023-11-22T08:01:23;101664.06;;;2.84;100.00
21504;BME280;10913;51.992;9.228;2023-11-22T08:03:48;101667.06;;;2.91;100.00
21504;BME280;10913;51.992;9.228;2023-11-22T08:06:16;101674.34;;;2.98;99.46
21504;BME280;10913;51.992;9.228;2023-11-22T08:08:41;101683.47;;;3.08;99.30
21504;BME280;10913;51.992;9.228;2023-11-22T08:11:07;101677.38;;;3.07;97.75
21504;BME280;10913;51.992;9.228;2023-11-22T08:13:40;101683.84;;;3.16;98.24
21504;BME280;10913;51.992;9.228;2023-11-22T08:16:06;101683.56;;;3.29;98.13
21504;BME280;10913;51.992;9.228;2023-11-22T08:18:31;101690.28;;;3.43;97.90
21504;BME280;10913;51.992;9.228;2023-11-22T08:20:56;101693.16;;;3.49;96.49
21504;BME280;10913;51.992;9.228;2023-11-22T08:23:21;101691.91;;;3.60;96.49
21504;BME280;10913;51.992;9.228;2023-11-22T08:25:47;101704.97;;;3.79;96.34
21504;BME280;10913;51.992;9.228;2023-11-22T08:28:12;101707.22;;;4.12;95.46
21504;BME280;10913;51.992;9.228;2023-11-22T08:30:38;101701.06;;;4.53;94.02
21504;BME280;10913;51.992;9.228;2023-11-22T08:33:06;101700.16;;;4.96;90.69
21504;BME280;10913;51.992;9.228;2023-11-22T08:35:31;101701.47;;;5.31;88.56
21504;BME280;10913;51.992;9.228;2023-11-22T08:37:56;101705.94;;;5.57;87.18
21504;BME280;10913;51.992;9.228;2023-11-22T08:40:23;101704.47;;;5.89;86.97
21504;BME280;10913;51.992;9.228;2023-11-22T08:42:48;101698.59;;;6.21;85.05
21504;BME280;10913;51.992;9.228;2023-11-22T08:45:14;101705.25;;;6.37;84.27
21504;BME280;10913;51.992;9.228;2023-11-22T08:47:39;101715.41;;;6.82;83.23
21504;BME280;10913;51.992;9.228;2023-11-22T08:50:06;101713.00;;;7.46;81.70
21504;BME280;10913;51.992;9.228;2023-11-22T08:52:31;101723.72;;;8.17;79.24
21504;BME280;10913;51.992;9.228;2023-11-22T08:54:57;101724.31;;;8.76;76.23
21504;BME280;10913;51.992;9.228;2023-11-22T08:57:22;101710.63;;;9.31;75.36
21504;BME280;10913;51.992;9.228;2023-11-22T08:59:47;101707.94;;;9.72;73.31
21504;BME280;10913;51.992;9.228;2023-11-22T09:02:13;101687.34;;;9.99;72.42
21504;BME280;10913;51.992;9.228;2023-11-22T09:04:39;101697.56;;;10.29;71.10
21504;BME280;10913;51.992;9.228;2023-11-22T09:07:06;101680.22;;;10.46;69.84
21504;BME280;10913;51.992;9.228;2023-11-22T09:09:31;101690.91;;;10.52;70.25
21504;BME280;10913;51.992;9.228;2023-11-22T09:11:57;101683.75;;;10.47;69.72
21504;BME280;10913;51.992;9.228;2023-11-22T09:14:23;101679.53;;;10.07;69.12
21504;BME280;10913;51.992;9.228;2023-11-22T09:16:49;101675.53;;;9.80;70.11
21504;BME280;10913;51.992;9.228;2023-11-22T09:19:19;101690.06;;;9.57;70.07
21504;BME280;10913;51.992;9.228;2023-11-22T09:21:44;101697.38;;;9.28;68.78
21504;BME280;10913;51.992;9.228;2023-11-22T09:24:09;101686.31;;;9.05;70.26
21504;BME280;10913;51.992;9.228;2023-11-22T09:26:35;101698.47;;;8.97;71.47
21504;BME280;10913;51.992;9.228;2023-11-22T09:29:01;101711.78;;;9.05;71.07
21504;BME280;10913;51.992;9.228;2023-11-22T09:31:26;101704.38;;;9.27;72.23
21504;BME280;10913;51.992;9.228;2023-11-22T09:33:51;101684.84;;;9.61;70.91
21504;BME280;10913;51.992;9.228;2023-11-22T09:36:17;101667.47;;;10.21;69.35
21504;BME280;10913;51.992;9.228;2023-11-22T09:38:43;101659.25;;;10.55;65.79
21504;BME280;10913;51.992;9.228;2023-11-22T09:41:08;101669.13;;;10.68;66.32
21504;BME280;10913;51.992;9.228;2023-11-22T09:43:34;101676.91;;;10.58;65.03
21504;BME280;10913;51.992;9.228;2023-11-22T09:45:59;101680.00;;;10.31;66.19
21504;BME280;10913;51.992;9.228;2023-11-22T09:48:25;101674.72;;;10.31;67.29
21504;BME280;10913;51.992;9.228;2023-11-22T09:53:34;101673.41;;;9.61;66.73
21504;BME280;10913;51.992;9.228;2023-11-22T09:56:00;101679.59;;;9.19;68.14
21504;BME280;10913;51.992;9.228;2023-11-22T09:58:28;101692.56;;;8.70;69.96
21504;BME280;10913;51.992;9.228;2023-11-22T10:00:54;101690.06;;;8.40;70.21
21504;BME280;10913;51.992;9.228;2023-11-22T10:03:20;101687.78;;;8.19;71.60
21504;BME280;10913;51.992;9.228;2023-11-22T10:05:46;101684.03;;;7.76;71.67
21504;BME280;10913;51.992;9.228;2023-11-22T10:08:11;101689.38;;;7.48;73.20
21504;BME280;10913;51.992;9.228;2023-11-22T10:10:37;101692.03;;;7.19;74.03
21504;BME280;10913;51.992;9.228;2023-11-22T10:13:02;101692.38;;;7.02;74.19
21504;BME280;10913;51.992;9.228;2023-11-22T10:15:28;101692.81;;;6.87;75.51
21504;BME280;10913;51.992;9.228;2023-11-22T10:17:55;101694.34;;;6.79;75.63
21504;BME280;10913;51.992;9.228;2023-11-22T10:20:35;101694.03;;;6.70;76.60
21504;BME280;10913;51.992;9.228;2023-11-22T10:23:00;101700.34;;;6.75;76.71
21504;BME280;10913;51.992;9.228;2023-11-22T10:25:26;101707.91;;;6.66;75.21
21504;BME280;10913;51.992;9.228;2023-11-22T10:27:51;101708.53;;;6.57;75.18
21504;BME280;10913;51.992;9.228;2023-11-22T10:30:17;101699.59;;;6.52;75.30
21504;BME280;10913;51.992;9.228;2023-11-22T10:32:43;101698.56;;;6.47;73.76
21504;BME280;10913;51.992;9.228;2023-11-22T10:35:08;101698.41;;;6.42;74.71
21504;BME280;10913;51.992;9.228;2023-11-22T10:37:37;101704.69;;;6.47;75.31
21504;BME280;10913;51.992;9.228;2023-11-22T10:40:02;101702.97;;;6.48;74.08
21504;BME280;10913;51.992;9.228;2023-11-22T10:42:30;101708.63;;;6.33;73.72
21504;BME280;10913;51.992;9.228;2023-11-22T10:44:55;101704.72;;;6.22;74.04
21504;BME280;10913;51.992;9.228;2023-11-22T10:47:22;101702.88;;;6.18;73.87
21504;BME280;10913;51.992;9.228;2023-11-22T10:49:48;101715.88;;;6.15;73.73
21504;BME280;10913;51.992;9.228;2023-11-22T10:52:13;101717.59;;;6.14;74.09
21504;BME280;10913;51.992;9.228;2023-11-22T10:54:40;101702.09;;;6.22;74.25
21504;BME280;10913;51.992;9.228;2023-11-22T10:57:08;101694.56;;;6.31;74.33
21504;BME280;10913;51.992;9.228;2023-11-22T10:59:34;101692.22;;;6.40;75.71
21504;BME280;10913;51.992;9.228;2023-11-22T11:02:01;101695.81;;;6.44;76.65
21504;BME280;10913;51.992;9.228;2023-11-22T11:04:52;101696.28;;;6.57;77.24
21504;BME280;10913;51.992;9.228;2023-11-22T11:07:14;101691.38;;;6.68;77.91
21504;BME280;10913;51.992;9.228;2023-11-22T11:09:42;101689.00;;;6.76;78.35
21504;BME280;10913;51.992;9.228;2023-11-22T11:12:07;101681.16;;;6.77;78.70
21504;BME280;10913;51.992;9.228;2023-11-22T11:14:34;101680.91;;;6.70;78.42
21504;BME280;10913;51.992;9.228;2023-11-22T11:16:59;101669.38;;;6.65;78.84
21504;BME280;10913;51.992;9.228;2023-11-22T11:19:25;101663.97;;;6.60;78.85
21504;BME280;10913;51.992;9.228;2023-11-22T11:21:51;101664.78;;;6.57;78.96
21504;BME280;10913;51.992;9.228;2023-11-22T11:24:16;101659.47;;;6.56;78.94
21504;BME280;10913;51.992;9.228;2023-11-22T11:26:47;101663.06;;;6.58;78.83
21504;BME280;10913;51.992;9.228;2023-11-22T11:29:29;101663.91;;;6.57;78.26
21504;BME280;10913;51.992;9.228;2023-11-22T11:31:54;101643.47;;;6.48;75.29
21504;BME280;10913;51.992;9.228;2023-11-22T11:34:21;101653.94;;;6.47;75.31
21504;BME280;10913;51.992;9.228;2023-11-22T11:36:48;101645.06;;;6.43;74.52
21504;BME280;10913;51.992;9.228;2023-11-22T11:39:18;101630.34;;;6.48;73.77
21504;BME280;10913;51.992;9.228;2023-11-22T11:41:49;101638.34;;;6.25;72.70
21504;BME280;10913;51.992;9.228;2023-11-22T11:44:14;101634.53;;;6.15;73.45
21504;BME280;10913;51.992;9.228;2023-11-22T11:46:41;101629.13;;;6.10;73.80
21504;BME280;10913;51.992;9.228;2023-11-22T11:49:07;101630.06;;;6.12;73.89
21504;BME280;10913;51.992;9.228;2023-11-22T11:51:33;101629.91;;;6.08;73.73
21504;BME280;10913;51.992;9.228;2023-11-22T11:53:58;101630.66;;;6.04;74.02
21504;BME280;10913;51.992;9.228;2023-11-22T11:56:23;101618.38;;;6.03;74.60
21504;BME280;10913;51.992;9.228;2023-11-22T11:58:51;101617.44;;;6.01;74.06
21504;BME280;10913;51.992;9.228;2023-11-22T12:01:17;101610.50;;;6.03;74.70
21504;BME280;10913;51.992;9.228;2023-11-22T12:03:44;101608.31;;;6.15;74.91
21504;BME280;10913;51.992;9.228;2023-11-22T12:06:10;101609.50;;;5.98;73.08
21504;BME280;10913;51.992;9.228;2023-11-22T12:08:36;101603.41;;;5.99;73.96
21504;BME280;10913;51.992;9.228;2023-11-22T12:11:04;101587.00;;;6.06;73.42
21504;BME280;10913;51.992;9.228;2023-11-22T12:13:32;101573.03;;;6.07;73.44
21504;BME280;10913;51.992;9.228;2023-11-22T12:15:57;101567.25;;;5.90;73.45
21504;BME280;10913;51.992;9.228;2023-11-22T12:18:23;101546.69;;;5.77;73.64
21504;BME280;10913;51.992;9.228;2023-11-22T12:20:57;101553.91;;;5.84;73.25
21504;BME280;10913;51.992;9.228;2023-11-22T12:23:23;101539.13;;;5.86;74.04
21504;BME280;10913;51.992;9.228;2023-11-22T12:25:53;101527.63;;;5.82;73.21
21504;BME280;10913;51.992;9.228;2023-11-22T12:28:18;101519.03;;;5.86;73.55
21504;BME280;10913;51.992;9.228;2023-11-22T12:30:43;101513.78;;;5.86;72.81
21504;BME280;10913;51.992;9.228;2023-11-22T12:33:09;101509.63;;;5.92;72.56
21504;BME280;10913;51.992;9.228;2023-11-22T12:35:35;101507.44;;;5.80;72.67
21504;BME280;10913;51.992;9.228;2023-11-22T12:38:01;101496.63;;;5.69;72.82
21504;BME280;10913;51.992;9.228;2023-11-22T12:40:30;101499.19;;;5.68;72.64
21504;BME280;10913;51.992;9.228;2023-11-22T12:42:58;101502.50;;;5.62;73.25
21504;BME280;10913;51.992;9.228;2023-11-22T12:45:25;101498.44;;;5.45;72.53
21504;BME280;10913;51.992;9.228;2023-11-22T12:47:50;101498.78;;;5.29;73.70